Time;durP1;ratioP1;P1;durP2;ratioP2;P2;SDS_P1;SDS_P2;PMS_P1;PMS_P2;Temp;Humidity;BMP_temperature;BMP_pressure;BME280_temperature;BME280_humidity;BME280_pressure;Samples;Min_cycle;Max_cycle;Signal;HPM_P1;HPM_P2
2022/09/09 00:01:30;;;;;;;9.40;8.63;;;18.30;99.90;;;;;;6156207;23;20434;-75
2022/09/09 00:04:04;;;;;;;8.77;7.97;;;18.30;99.90;;;;;;6155864;23;20781;-75
2022/09/09 00:06:35;;;;;;;6.90;6.30;;;18.30;99.90;;;;;;6157168;23;20444;-77
2022/09/09 00:09:07;;;;;;;9.90;8.87;;;18.30;99.90;;;;;;6156872;23;20741;-75
2022/09/09 00:11:47;;;;;;;7.63;6.93;;;18.30;99.90;;;;;;6157381;23;20487;-76
2022/09/09 00:14:24;;;;;;;9.07;8.27;;;18.30;99.90;;;;;;6156199;23;20788;-76
2022/09/09 00:16:56;;;;;;;11.93;10.67;;;18.20;99.90;;;;;;6155484;23;20451;-76
2022/09/09 00:19:28;;;;;;;9.23;7.07;;;18.20;99.90;;;;;;6155606;23;20449;-76
2022/09/09 00:22:06;;;;;;;6.80;6.20;;;18.20;99.90;;;;;;6157023;23;20451;-76
2022/09/09 00:24:39;;;;;;;8.90;8.10;;;18.20;99.90;;;;;;6156952;23;20464;-76
2022/09/09 00:27:18;;;;;;;8.63;7.83;;;18.20;99.90;;;;;;6154830;23;20475;-77
2022/09/09 00:29:53;;;;;;;8.90;8.00;;;18.20;99.90;;;;;;6156370;23;20788;-76
2022/09/09 00:32:31;;;;;;;9.73;8.83;;;18.20;99.90;;;;;;6157398;23;20456;-78
2022/09/09 00:35:05;;;;;;;6.63;6.00;;;18.10;99.90;;;;;;6157376;23;20496;-76
2022/09/09 00:37:41;;;;;;;8.93;8.13;;;18.10;99.90;;;;;;6126623;23;20487;-76
2022/09/09 00:40:23;;;;;;;7.20;6.50;;;18.10;99.90;;;;;;6125740;23;20441;-76
2022/09/09 00:43:08;;;;;;;12.70;6.63;;;18.10;99.90;;;;;;6126963;23;20509;-76
2022/09/09 00:45:58;;;;;;;6.37;5.80;;;18.10;99.90;;;;;;6125772;23;20464;-76
2022/09/09 00:48:40;;;;;;;6.70;6.10;;;18.00;99.90;;;;;;6124200;23;20525;-75
2022/09/09 00:51:15;;;;;;;6.10;5.60;;;18.00;99.90;;;;;;6127438;23;20915;-76
2022/09/09 00:54:09;;;;;;;8.53;7.83;;;18.00;99.90;;;;;;6126882;23;20425;-75
2022/09/09 00:56:42;;;;;;;7.10;6.50;;;18.00;99.90;;;;;;6125964;23;20441;-75
2022/09/09 00:59:20;;;;;;;7.27;6.67;;;18.00;99.90;;;;;;6127396;23;20746;-75
2022/09/09 01:01:47;;;;;;;8.07;7.47;;;17.90;99.90;;;;;;6126576;23;20433;-75
2022/09/09 01:04:20;;;;;;;7.13;6.50;;;17.90;99.90;;;;;;6127313;23;20796;-76
2022/09/09 01:06:54;;;;;;;6.50;6.00;;;17.90;99.90;;;;;;6127536;23;20532;-76
2022/09/09 01:09:27;;;;;;;5.60;5.20;;;17.90;99.90;;;;;;6127397;23;20451;-77
2022/09/09 01:12:02;;;;;;;7.20;6.60;;;17.90;99.90;;;;;;6127544;23;20454;-77
2022/09/09 01:14:44;;;;;;;6.87;6.27;;;17.90;99.90;;;;;;6127037;23;20444;-77
2022/09/09 01:17:17;;;;;;;8.10;7.37;;;17.90;99.90;;;;;;6127295;23;20513;-78
2022/09/09 01:19:58;;;;;;;8.17;7.57;;;17.90;99.90;;;;;;6125990;23;20517;-78
2022/09/09 01:22:34;;;;;;;8.10;7.50;;;17.90;99.90;;;;;;6126529;23;20439;-76
2022/09/09 01:25:28;;;;;;;8.97;8.17;;;17.90;99.90;;;;;;6127001;23;20456;-76
2022/09/09 01:28:01;;;;;;;7.87;7.10;;;17.90;99.90;;;;;;6126736;23;20465;-76
2022/09/09 01:30:29;;;;;;;8.50;6.10;;;17.90;99.90;;;;;;6127270;23;20435;-77
2022/09/09 01:33:00;;;;;;;7.27;6.67;;;17.90;99.90;;;;;;6126934;23;20433;-76
2022/09/09 01:35:40;;;;;;;6.33;5.87;;;17.90;99.90;;;;;;6127372;23;20516;-76
2022/09/09 01:38:07;;;;;;;7.60;7.00;;;17.90;99.90;;;;;;6128186;23;20434;-76
2022/09/09 01:40:35;;;;;;;7.37;6.67;;;17.90;99.90;;;;;;6126943;23;20456;-76
2022/09/09 01:43:04;;;;;;;8.03;7.23;;;17.80;99.90;;;;;;6126471;23;20441;-76
2022/09/09 01:45:32;;;;;;;8.10;7.40;;;17.80;99.90;;;;;;6127310;23;20442;-77
2022/09/09 01:48:00;;;;;;;7.60;7.00;;;17.80;99.90;;;;;;6126231;23;20511;-77
2022/09/09 01:50:27;;;;;;;6.00;5.50;;;17.80;99.90;;;;;;6125695;23;20437;-77
2022/09/09 01:52:58;;;;;;;6.20;5.70;;;17.80;99.90;;;;;;6124538;23;20722;-77
2022/09/09 01:55:34;;;;;;;8.10;7.40;;;17.80;99.90;;;;;;6126390;23;20445;-76
2022/09/09 01:58:18;;;;;;;7.00;6.50;;;17.80;99.90;;;;;;6126143;23;20931;-77
2022/09/09 02:00:52;;;;;;;6.97;6.37;;;17.80;99.90;;;;;;6126399;23;20449;-77
2022/09/09 02:03:30;;;;;;;7.70;7.10;;;17.80;99.90;;;;;;6127010;23;20437;-76
2022/09/09 02:06:06;;;;;;;7.60;7.00;;;17.80;99.90;;;;;;6125195;23;20914;-77
2022/09/09 02:08:41;;;;;;;7.47;6.87;;;17.70;99.90;;;;;;6124894;23;20437;-77
2022/09/09 02:11:13;;;;;;;7.60;7.00;;;17.70;99.90;;;;;;6124340;23;20437;-76
2022/09/09 02:13:43;;;;;;;6.27;5.67;;;17.70;99.90;;;;;;6124509;23;20469;-76
2022/09/09 02:16:16;;;;;;;7.60;6.90;;;17.70;99.90;;;;;;6123671;23;20446;-76
2022/09/09 02:18:49;;;;;;;11.37;10.20;;;17.70;99.90;;;;;;6125310;23;20449;-76
2022/09/09 02:21:18;;;;;;;7.43;6.77;;;17.70;99.90;;;;;;6124483;23;20873;-76
2022/09/09 02:23:47;;;;;;;7.63;6.93;;;17.70;99.90;;;;;;6124532;23;20442;-76
2022/09/09 02:26:21;;;;;;;7.60;7.00;;;17.70;99.90;;;;;;6125571;23;20496;-76
2022/09/09 02:28:50;;;;;;;12.73;11.40;;;17.60;99.90;;;;;;6125586;23;20437;-77
2022/09/09 02:31:21;;;;;;;12.00;10.87;;;17.60;99.90;;;;;;6123529;23;20457;-77
2022/09/09 02:33:53;;;;;;;11.40;10.20;;;17.60;99.90;;;;;;6124011;23;20453;-76
2022/09/09 02:36:23;;;;;;;8.23;7.57;;;17.60;99.90;;;;;;6125350;23;20440;-77
2022/09/09 02:38:52;;;;;;;9.23;8.43;;;17.60;99.90;;;;;;6121013;23;20440;-77
2022/09/09 02:41:21;;;;;;;7.37;6.77;;;17.50;99.90;;;;;;6136961;23;20438;-77
2022/09/09 02:43:50;;;;;;;7.07;6.57;;;17.60;99.90;;;;;;6130302;23;20441;-77
2022/09/09 02:46:33;;;;;;;7.27;6.67;;;17.50;99.90;;;;;;6126284;23;20444;-77
2022/09/09 02:49:05;;;;;;;8.87;8.07;;;17.50;99.90;;;;;;6125362;23;20439;-77
2022/09/09 02:51:41;;;;;;;7.13;6.53;;;17.50;99.90;;;;;;6125050;23;20466;-76
2022/09/09 02:54:17;;;;;;;6.40;5.97;;;17.50;99.90;;;;;;6124940;23;20444;-77
2022/09/09 02:56:50;;;;;;;7.03;6.37;;;17.50;99.90;;;;;;6125393;23;20446;-77
2022/09/09 02:59:19;;;;;;;10.20;9.20;;;17.50;99.90;;;;;;6124623;23;20905;-76
2022/09/09 03:01:46;;;;;;;7.93;7.30;;;17.50;99.90;;;;;;6124140;23;20471;-76
2022/09/09 03:04:13;;;;;;;6.00;5.60;;;17.50;99.90;;;;;;6124965;23;20441;-77
2022/09/09 03:06:44;;;;;;;7.57;6.97;;;17.50;99.90;;;;;;6124026;23;20436;-76
2022/09/09 03:09:12;;;;;;;6.03;5.53;;;17.40;99.90;;;;;;6123648;23;20437;-77
2022/09/09 03:11:39;;;;;;;6.67;6.17;;;17.50;99.90;;;;;;6125043;23;20904;-76
2022/09/09 03:14:08;;;;;;;6.47;5.90;;;17.40;99.90;;;;;;6125179;23;20913;-76
2022/09/09 03:16:36;;;;;;;6.90;6.27;;;17.40;99.90;;;;;;6125150;23;20438;-77
2022/09/09 03:19:04;;;;;;;6.80;6.20;;;17.40;99.90;;;;;;6126895;23;20441;-76
2022/09/09 03:21:34;;;;;;;6.03;5.43;;;17.40;99.90;;;;;;6124889;23;20461;-76
2022/09/09 03:24:03;;;;;;;6.33;5.80;;;17.40;99.90;;;;;;6126544;23;20436;-77
2022/09/09 03:26:30;;;;;;;7.70;6.40;;;17.40;99.90;;;;;;6125834;23;20925;-77
2022/09/09 03:28:57;;;;;;;8.33;7.50;;;17.40;99.90;;;;;;6126896;23;20437;-77
2022/09/09 03:31:24;;;;;;;14.73;13.23;;;17.40;99.90;;;;;;6125642;23;20456;-77
2022/09/09 03:33:53;;;;;;;10.60;9.50;;;17.40;99.90;;;;;;6126179;23;20493;-76
2022/09/09 03:36:20;;;;;;;8.30;7.23;;;17.40;99.90;;;;;;6125397;23;20439;-76
2022/09/09 03:38:47;;;;;;;8.10;7.40;;;17.30;99.90;;;;;;6126340;23;20448;-76
2022/09/09 03:41:14;;;;;;;7.83;7.23;;;17.30;99.90;;;;;;6126732;23;20876;-76
2022/09/09 03:43:41;;;;;;;7.03;6.37;;;17.30;99.90;;;;;;6128486;23;20439;-76
2022/09/09 03:46:09;;;;;;;6.67;6.07;;;17.30;99.90;;;;;;6128508;23;20448;-76
2022/09/09 03:48:36;;;;;;;9.10;8.30;;;17.30;99.90;;;;;;6127998;23;20448;-77
2022/09/09 03:51:05;;;;;;;8.03;7.00;;;17.30;99.90;;;;;;6128220;23;20441;-77
2022/09/09 03:53:33;;;;;;;7.33;6.73;;;17.30;99.90;;;;;;6127327;23;20783;-77
2022/09/09 03:56:00;;;;;;;6.60;6.10;;;17.30;99.90;;;;;;6127695;23;20444;-76
2022/09/09 03:58:28;;;;;;;6.77;6.20;;;17.30;99.90;;;;;;6127639;23;20919;-76
2022/09/09 04:00:57;;;;;;;7.40;6.27;;;17.20;99.90;;;;;;6128219;23;20432;-76
2022/09/09 04:03:25;;;;;;;9.07;8.23;;;17.20;99.90;;;;;;6115247;23;20434;-76
2022/09/09 04:05:52;;;;;;;7.13;6.63;;;17.20;99.90;;;;;;6132352;23;20440;-76
2022/09/09 04:08:22;;;;;;;6.17;5.67;;;17.20;99.90;;;;;;6127018;23;20479;-76
2022/09/09 04:10:50;;;;;;;6.70;6.10;;;17.20;99.90;;;;;;6127523;23;20928;-76
2022/09/09 04:13:18;;;;;;;6.97;6.43;;;17.20;99.90;;;;;;6127853;23;20496;-75
2022/09/09 04:15:51;;;;;;;7.90;7.13;;;17.20;99.90;;;;;;6127860;23;20917;-76
2022/09/09 04:18:20;;;;;;;8.00;6.70;;;17.20;99.90;;;;;;6130926;23;20463;-76
2022/09/09 04:20:48;;;;;;;7.00;6.40;;;17.20;99.90;;;;;;6129135;23;20440;-76
2022/09/09 04:23:18;;;;;;;4.63;4.23;;;17.20;99.90;;;;;;6125662;23;20440;-76
2022/09/09 04:25:48;;;;;;;5.60;5.13;;;17.20;99.90;;;;;;6129211;23;20520;-76
2022/09/09 04:28:15;;;;;;;11.33;5.90;;;17.20;99.90;;;;;;6129018;23;20439;-76
2022/09/09 04:30:44;;;;;;;6.30;5.70;;;17.20;99.90;;;;;;6128341;23;20435;-76
2022/09/09 04:33:12;;;;;;;5.77;5.27;;;17.20;99.90;;;;;;6128533;23;20446;-76
2022/09/09 04:35:42;;;;;;;5.20;4.80;;;17.20;99.90;;;;;;6129444;23;20466;-77
2022/09/09 04:38:09;;;;;;;5.67;5.20;;;17.20;99.90;;;;;;6128256;23;20439;-76
2022/09/09 04:40:42;;;;;;;5.70;5.20;;;17.20;99.90;;;;;;6130014;23;20737;-75
2022/09/09 04:43:11;;;;;;;5.00;4.50;;;17.20;99.90;;;;;;6129530;23;20446;-75
2022/09/09 04:45:40;;;;;;;5.40;4.90;;;17.20;99.90;;;;;;6128941;23;20434;-77
2022/09/09 04:48:08;;;;;;;4.63;4.20;;;17.20;99.90;;;;;;6135426;23;20448;-77
2022/09/09 04:50:35;;;;;;;4.70;4.40;;;17.20;99.90;;;;;;6135960;23;20471;-76
2022/09/09 04:53:03;;;;;;;4.67;4.27;;;17.20;99.90;;;;;;6141370;23;20953;-75
2022/09/09 04:55:33;;;;;;;4.57;4.27;;;17.20;99.90;;;;;;6109683;23;20452;-75
2022/09/09 04:58:08;;;;;;;4.67;4.30;;;17.30;99.90;;;;;;6108818;23;20511;-76
2022/09/09 05:03:20;;;;;;;7.17;6.43;;;17.30;99.90;;;;;;6097839;23;20918;-77
2022/09/09 05:05:47;;;;;;;6.80;6.20;;;17.30;99.90;;;;;;6084752;23;20523;-76
2022/09/09 05:08:14;;;;;;;9.50;8.27;;;17.30;99.90;;;;;;6070313;23;20476;-76
2022/09/09 05:10:41;;;;;;;6.73;6.10;;;17.30;99.90;;;;;;6109823;23;20428;-76
2022/09/09 05:13:08;;;;;;;5.57;5.07;;;17.30;99.90;;;;;;6097184;23;20439;-76
2022/09/09 05:15:37;;;;;;;5.87;5.37;;;17.30;99.90;;;;;;6097493;23;20926;-76
2022/09/09 05:18:04;;;;;;;5.93;5.43;;;17.30;99.90;;;;;;6100679;23;20468;-76
2022/09/09 05:20:31;;;;;;;5.17;4.63;;;17.30;99.90;;;;;;6105695;23;20467;-76
2022/09/09 05:22:58;;;;;;;5.37;4.87;;;17.30;99.90;;;;;;6107662;23;20456;-75
2022/09/09 05:25:26;;;;;;;5.10;4.60;;;17.30;99.90;;;;;;6106861;23;20446;-75
2022/09/09 05:27:54;;;;;;;5.57;5.07;;;17.30;99.90;;;;;;6105815;23;20439;-76
2022/09/09 05:30:22;;;;;;;5.90;5.40;;;17.40;99.90;;;;;;6104454;23;20737;-76
2022/09/09 05:32:50;;;;;;;6.77;6.07;;;17.40;99.90;;;;;;6106049;23;20803;-76
2022/09/09 05:35:20;;;;;;;5.27;4.77;;;17.40;99.90;;;;;;6105951;23;20445;-76
2022/09/09 05:37:48;;;;;;;5.77;5.00;;;17.40;99.90;;;;;;6089717;23;20481;-76
2022/09/09 05:40:15;;;;;;;5.77;5.27;;;17.50;99.90;;;;;;6105692;23;20436;-76
2022/09/09 05:42:42;;;;;;;4.30;3.90;;;17.40;99.90;;;;;;6103377;23;20802;-76
2022/09/09 05:45:10;;;;;;;4.63;4.00;;;17.50;99.90;;;;;;6101965;23;20441;-76
2022/09/09 05:47:37;;;;;;;4.77;4.37;;;17.50;99.90;;;;;;6100929;23;20441;-76
2022/09/09 05:50:09;;;;;;;4.50;4.20;;;17.50;99.90;;;;;;6101280;23;20443;-77
2022/09/09 05:52:36;;;;;;;4.93;4.53;;;17.50;99.90;;;;;;6100348;23;20467;-77
2022/09/09 05:55:04;;;;;;;4.60;4.20;;;17.50;99.90;;;;;;6097974;23;20449;-76
2022/09/09 05:57:32;;;;;;;5.70;4.00;;;17.60;99.90;;;;;;6099144;23;20723;-77
2022/09/09 05:59:59;;;;;;;5.03;4.50;;;17.60;99.90;;;;;;6097349;23;20431;-76
2022/09/09 06:02:32;;;;;;;4.20;3.90;;;17.60;99.90;;;;;;6110137;23;20463;-76
2022/09/09 06:05:22;;;;;;;4.33;3.93;;;17.60;99.90;;;;;;6076294;23;20447;-77
2022/09/09 06:07:53;;;;;;;4.70;3.77;;;17.60;99.90;;;;;;5979414;23;20919;-77
2022/09/09 06:10:20;;;;;;;5.80;3.90;;;17.70;99.90;;;;;;6024590;23;20517;-76
2022/09/09 06:12:47;;;;;;;4.80;4.27;;;17.70;99.90;;;;;;6079562;23;20439;-76
2022/09/09 06:15:14;;;;;;;3.53;3.20;;;17.80;99.90;;;;;;6095877;23;20748;-76
2022/09/09 06:17:57;;;;;;;3.20;2.93;;;17.80;99.90;;;;;;6083045;23;20446;-76
2022/09/09 06:20:26;;;;;;;5.60;4.07;;;17.80;99.90;;;;;;6088535;23;20448;-76
2022/09/09 06:22:53;;;;;;;4.70;4.17;;;17.80;99.90;;;;;;6099357;23;20438;-76
2022/09/09 06:25:19;;;;;;;4.70;4.30;;;17.80;99.90;;;;;;6098260;23;21362;-77
2022/09/09 06:28:11;;;;;;;4.10;3.80;;;17.80;99.90;;;;;;6098232;23;20442;-77
2022/09/09 06:30:39;;;;;;;5.07;3.87;;;17.90;99.90;;;;;;6104394;23;20442;-76
2022/09/09 06:33:09;;;;;;;7.33;4.77;;;17.90;99.90;;;;;;6101280;23;20749;-76
2022/09/09 06:35:37;;;;;;;5.37;4.37;;;17.90;99.90;;;;;;6105286;23;20439;-76
2022/09/09 06:38:26;;;;;;;4.27;3.97;;;18.00;99.90;;;;;;6079976;23;20442;-76
2022/09/09 06:40:55;;;;;;;6.60;4.87;;;18.00;99.90;;;;;;6066614;23;20478;-76
2022/09/09 06:43:30;;;;;;;5.00;4.17;;;18.10;99.90;;;;;;6067540;23;20939;-76
2022/09/09 06:46:00;;;;;;;4.77;4.40;;;18.10;99.90;;;;;;6109159;23;20943;-76
2022/09/09 06:48:28;;;;;;;4.97;4.57;;;18.10;99.90;;;;;;6096831;23;20434;-76
2022/09/09 06:51:07;;;;;;;7.77;4.87;;;18.20;99.90;;;;;;6082609;23;20530;-76
2022/09/09 06:53:35;;;;;;;4.70;4.20;;;18.10;99.90;;;;;;6097530;23;20933;-76
2022/09/09 06:56:03;;;;;;;4.47;4.07;;;18.20;99.90;;;;;;6097262;23;20470;-75
2022/09/09 06:58:36;;;;;;;4.00;3.43;;;18.20;99.90;;;;;;6097034;23;20439;-75
2022/09/09 07:01:04;;;;;;;5.73;3.73;;;18.30;99.90;;;;;;6096872;23;20442;-75
2022/09/09 07:03:34;;;;;;;4.83;4.40;;;18.30;99.90;;;;;;6097191;23;20438;-75
2022/09/09 07:06:07;;;;;;;5.13;4.13;;;18.40;99.90;;;;;;6097662;23;20450;-77
2022/09/09 07:08:36;;;;;;;3.40;3.10;;;18.50;99.90;;;;;;6066969;23;20436;-75
2022/09/09 07:11:26;;;;;;;4.90;3.90;;;18.60;99.90;;;;;;6109795;23;20439;-76
2022/09/09 07:14:05;;;;;;;3.40;3.10;;;18.60;99.90;;;;;;6098437;23;20795;-75
2022/09/09 07:16:33;;;;;;;3.83;3.53;;;18.70;99.90;;;;;;6098336;23;20439;-76
2022/09/09 07:19:02;;;;;;;3.07;2.87;;;18.80;99.90;;;;;;6095884;23;20468;-76
2022/09/09 07:21:48;;;;;;;5.93;4.13;;;18.80;99.90;;;;;;6082400;23;20463;-76
2022/09/09 07:24:15;;;;;;;6.90;3.80;;;18.80;99.90;;;;;;6067239;23;20443;-75
2022/09/09 07:27:14;;;;;;;4.20;3.27;;;18.90;99.90;;;;;;6081315;23;20755;-76
2022/09/09 07:29:47;;;;;;;5.17;3.13;;;18.90;99.90;;;;;;6076852;23;20460;-75
2022/09/09 07:32:19;;;;;;;3.07;2.80;;;19.10;99.90;;;;;;6079298;23;20522;-75
2022/09/09 07:34:50;;;;;;;2.60;2.40;;;19.20;99.90;;;;;;6096564;23;20513;-76
2022/09/09 07:37:37;;;;;;;3.37;2.70;;;19.20;99.90;;;;;;6095720;23;20442;-76
2022/09/09 07:40:05;;;;;;;3.87;3.20;;;19.30;99.90;;;;;;6085009;23;20449;-76
2022/09/09 07:42:35;;;;;;;4.07;3.33;;;19.40;99.90;;;;;;6115360;23;20987;-76
2022/09/09 07:45:09;;;;;;;4.30;3.27;;;19.40;99.90;;;;;;6126638;23;20435;-75
2022/09/09 07:47:37;;;;;;;3.97;2.90;;;19.50;99.90;;;;;;6126645;23;20437;-77
2022/09/09 07:50:08;;;;;;;3.20;2.90;;;19.60;99.90;;;;;;6127219;23;20514;-75
2022/09/09 07:52:37;;;;;;;4.23;2.70;;;19.70;99.90;;;;;;6124953;23;20751;-76
2022/09/09 07:55:06;;;;;;;2.93;2.70;;;19.80;99.90;;;;;;6113272;23;20453;-76
2022/09/09 07:57:53;;;;;;;6.40;3.37;;;19.90;99.90;;;;;;6125366;23;20692;-75
2022/09/09 08:00:22;;;;;;;4.47;3.40;;;20.00;99.90;;;;;;6103715;23;20741;-76
2022/09/09 08:03:00;;;;;;;5.33;3.20;;;20.10;99.90;;;;;;6126523;23;20442;-76
2022/09/09 08:05:30;;;;;;;3.20;2.53;;;20.10;99.90;;;;;;6102386;23;20447;-76
2022/09/09 08:08:04;;;;;;;4.43;3.47;;;20.30;99.90;;;;;;6106658;23;20435;-76
2022/09/09 08:10:34;;;;;;;4.50;4.10;;;20.40;99.90;;;;;;6124097;23;20458;-76
2022/09/09 08:13:01;;;;;;;6.27;4.70;;;20.40;99.90;;;;;;6125006;23;20433;-76
2022/09/09 08:15:52;;;;;;;4.67;3.50;;;20.60;99.90;;;;;;6069046;23;20439;-76
2022/09/09 08:18:19;;;;;;;3.90;2.97;;;20.70;99.90;;;;;;6096329;23;20440;-76
2022/09/09 08:20:46;;;;;;;4.27;3.40;;;20.70;99.90;;;;;;6125987;23;20532;-75
2022/09/09 08:23:15;;;;;;;2.40;2.20;;;20.70;99.90;;;;;;6125758;23;20496;-76
2022/09/09 08:25:58;;;;;;;2.93;2.30;;;20.70;99.90;;;;;;6106415;23;20507;-76
2022/09/09 08:28:41;;;;;;;5.70;2.57;;;20.80;99.90;;;;;;6094143;23;20469;-76
2022/09/09 08:31:30;;;;;;;;;;;;;;;;;;;;;
2022/09/09 08:34:10;;;;;;;4.13;1.80;;;20.80;99.90;;;;;;6091251;23;20456;-77
2022/09/09 08:37:01;;;;;;;3.67;1.60;;;20.80;99.90;;;;;;6078862;23;20477;-76
2022/09/09 08:39:33;;;;;;;2.83;2.37;;;20.80;99.90;;;;;;6104039;23;20515;-76
2022/09/09 08:42:51;;;;;;;2.23;2.03;;;20.80;99.90;;;;;;6126981;23;21027;-76
2022/09/09 08:45:32;;;;;;;2.30;2.00;;;20.90;99.90;;;;;;6125165;23;20469;-76
2022/09/09 08:48:22;;;;;;;3.00;2.40;;;20.90;99.90;;;;;;6070795;23;20437;-76
2022/09/09 08:51:01;;;;;;;2.33;1.90;;;21.00;99.90;;;;;;6088990;23;20437;-76
2022/09/09 08:53:37;;;;;;;2.80;2.03;;;21.00;99.90;;;;;;6126527;23;20449;-76
2022/09/09 08:56:46;;;;;;;7.77;2.47;;;21.00;99.90;;;;;;6105261;23;20448;-75
2022/09/09 08:59:40;;;;;;;4.57;4.07;;;21.00;99.90;;;;;;6088638;23;20447;-75
2022/09/09 09:05:58;;;;;;;2.80;1.90;;;21.00;99.90;;;;;;6007740;23;20447;-76
2022/09/09 09:08:54;;;;;;;5.83;2.30;;;21.00;99.90;;;;;;6026327;23;20435;-76
2022/09/09 09:11:23;;;;;;;3.20;2.57;;;21.00;99.90;;;;;;6038088;23;20440;-75
2022/09/09 09:13:56;;;;;;;2.10;1.90;;;21.10;99.90;;;;;;6024802;23;20444;-75
2022/09/09 09:16:32;;;;;;;3.50;1.60;;;21.10;99.90;;;;;;6037779;23;20446;-76
2022/09/09 09:19:00;;;;;;;10.13;6.53;;;21.10;99.90;;;;;;6041246;23;20443;-76
2022/09/09 09:21:40;;;;;;;4.70;3.60;;;21.20;99.90;;;;;;6095499;23;20985;-76
2022/09/09 09:24:36;;;;;;;6.07;3.50;;;21.20;99.90;;;;;;6120718;23;20485;-77
2022/09/09 09:27:14;;;;;;;4.23;2.80;;;21.20;99.90;;;;;;6111877;23;20814;-76
2022/09/09 09:29:43;;;;;;;2.53;2.27;;;21.30;99.90;;;;;;6127436;23;20442;-76
2022/09/09 09:32:22;;;;;;;3.20;2.90;;;21.40;99.90;;;;;;6126271;23;20500;-76
2022/09/09 09:35:04;;;;;;;3.23;2.77;;;21.50;99.90;;;;;;6103484;23;20442;-76
2022/09/09 09:37:51;;;;;;;;;;;;;;;;;;;;;
2022/09/09 09:40:53;;;;;;;;;;;;;;;;;;;;;
2022/09/09 09:43:44;;;;;;;3.00;2.70;;;21.80;99.90;;;;;;6104536;23;20989;-76
2022/09/09 09:56:49;;;;;;;;;;;;;;;;;;;;;
2022/09/09 10:03:37;;;;;;;4.03;2.90;;;22.00;99.90;;;;;;5797551;24;20533;-77
2022/09/09 10:06:14;;;;;;;3.10;2.90;;;22.00;99.90;;;;;;5925486;23;20437;-76
2022/09/09 10:08:52;;;;;;;4.60;2.17;;;22.00;99.90;;;;;;6104024;23;20438;-76
2022/09/09 10:11:48;;;;;;;4.10;3.43;;;22.00;99.90;;;;;;6084060;23;20797;-76
2022/09/09 10:17:37;;;;;;;3.70;3.33;;;22.00;99.90;;;;;;6069932;23;20440;-76
2022/09/09 10:20:30;;;;;;;2.23;2.03;;;22.10;99.90;;;;;;6126596;23;20445;-76
2022/09/09 10:23:15;;;;;;;3.83;2.87;;;22.10;99.90;;;;;;6126287;23;20478;-75
2022/09/09 10:25:59;;;;;;;5.30;2.90;;;22.10;99.90;;;;;;6126301;23;20443;-75
2022/09/09 10:28:57;;;;;;;4.00;2.90;;;22.20;99.90;;;;;;6126380;23;20774;-75
2022/09/09 10:31:32;;;;;;;5.73;3.60;;;22.30;99.90;;;;;;6125891;23;20895;-76
2022/09/09 10:34:12;;;;;;;3.90;2.30;;;22.30;99.90;;;;;;6113634;23;20521;-76
2022/09/09 10:36:50;;;;;;;3.70;3.40;;;22.40;99.90;;;;;;6061635;23;20443;-76
2022/09/09 10:39:36;;;;;;;3.47;1.80;;;22.40;99.90;;;;;;6105795;23;20454;-76
2022/09/09 10:42:10;;;;;;;2.07;1.87;;;22.50;99.90;;;;;;6123725;23;20442;-76
2022/09/09 10:45:04;;;;;;;3.47;2.10;;;22.50;99.90;;;;;;6126755;23;20433;-76
2022/09/09 10:47:52;;;;;;;5.93;4.00;;;22.50;99.90;;;;;;6110821;23;20438;-76
2022/09/09 10:50:55;;;;;;;11.10;6.40;;;22.50;99.90;;;;;;6106713;23;20434;-77
2022/09/09 10:53:35;;;;;;;6.60;5.50;;;22.60;99.90;;;;;;6008812;23;20444;-77
2022/09/09 10:56:08;;;;;;;4.00;3.47;;;22.60;99.90;;;;;;6114595;23;20466;-75
2022/09/09 10:58:45;;;;;;;3.50;3.17;;;22.70;99.90;;;;;;6126333;23;20431;-75
2022/09/09 11:01:19;;;;;;;2.33;2.13;;;22.80;99.90;;;;;;6126024;23;20442;-77
2022/09/09 11:03:53;;;;;;;2.50;1.53;;;22.90;99.90;;;;;;6126207;23;20433;-77
2022/09/09 11:06:22;;;;;;;2.93;2.43;;;22.90;99.90;;;;;;6126525;23;20783;-76
2022/09/09 11:08:54;;;;;;;5.33;2.60;;;23.00;99.90;;;;;;6126364;23;20441;-77
2022/09/09 11:11:34;;;;;;;2.30;2.00;;;23.10;99.90;;;;;;6123762;23;20723;-77
2022/09/09 11:14:09;;;;;;;4.13;1.93;;;23.10;99.90;;;;;;6126629;23;20438;-77
2022/09/09 11:16:42;;;;;;;2.70;1.80;;;23.20;99.90;;;;;;6125138;23;20517;-77
2022/09/09 11:19:18;;;;;;;5.47;4.00;;;23.20;99.90;;;;;;6126767;23;20431;-75
2022/09/09 11:21:49;;;;;;;5.87;3.47;;;23.20;99.90;;;;;;6126333;23;20477;-76
2022/09/09 11:24:26;;;;;;;4.03;1.87;;;23.20;99.90;;;;;;6100822;23;20469;-76
2022/09/09 11:27:02;;;;;;;2.10;1.60;;;23.20;99.90;;;;;;6113462;23;20735;-76
2022/09/09 11:29:52;;;;;;;1.40;1.30;;;23.20;99.90;;;;;;6124893;23;20524;-76
2022/09/09 11:32:44;;;;;;;3.93;1.90;;;23.20;99.90;;;;;;6126771;23;20458;-76
2022/09/09 11:35:30;;;;;;;2.80;1.57;;;23.30;99.90;;;;;;6123021;23;20446;-76
2022/09/09 11:38:19;;;;;;;5.17;2.53;;;23.30;99.90;;;;;;6125781;23;20452;-76
2022/09/09 11:40:47;;;;;;;3.60;1.73;;;23.30;99.90;;;;;;6124527;23;20439;-77
2022/09/09 11:43:23;;;;;;;5.20;2.03;;;23.20;99.90;;;;;;6121081;23;20437;-76
2022/09/09 11:45:57;;;;;;;2.60;1.63;;;23.30;99.90;;;;;;6123642;23;20443;-76
2022/09/09 11:48:29;;;;;;;6.43;2.07;;;23.30;99.90;;;;;;6124080;23;20431;-76
2022/09/09 11:51:07;;;;;;;3.43;2.17;;;23.30;99.90;;;;;;6099375;23;20787;-76
2022/09/09 11:53:48;;;;;;;1.60;1.50;;;23.40;99.90;;;;;;6083656;23;20505;-76
2022/09/09 11:56:30;;;;;;;4.57;2.70;;;23.40;99.90;;;;;;6107785;23;20816;-77
2022/09/09 11:59:07;;;;;;;2.40;1.53;;;23.50;99.90;;;;;;6103505;23;20435;-75
2022/09/09 12:01:41;;;;;;;2.43;1.97;;;23.50;99.90;;;;;;6124239;23;20493;-76
2022/09/09 12:04:19;;;;;;;2.70;1.93;;;23.50;99.90;;;;;;6127982;23;20744;-76
2022/09/09 12:06:47;;;;;;;5.53;1.90;;;23.60;99.90;;;;;;6111870;23;20445;-76
2022/09/09 12:09:25;;;;;;;2.23;1.50;;;23.60;99.90;;;;;;6127694;23;20934;-76
2022/09/09 12:11:54;;;;;;;2.50;2.00;;;23.70;99.90;;;;;;6124498;23;20480;-76
2022/09/09 12:14:36;;;;;;;3.10;2.00;;;23.70;99.90;;;;;;6125874;23;20505;-76
2022/09/09 12:17:18;;;;;;;2.20;1.53;;;23.70;99.90;;;;;;6126076;23;20445;-77
2022/09/09 12:19:45;;;;;;;3.10;2.00;;;23.70;99.90;;;;;;6126408;23;20453;-76
2022/09/09 12:22:26;;;;;;;2.13;1.50;;;23.70;99.90;;;;;;6111459;23;20434;-76
2022/09/09 12:25:03;;;;;;;3.00;1.83;;;23.70;99.90;;;;;;6125151;23;20443;-76
2022/09/09 12:27:36;;;;;;;4.53;1.60;;;23.80;99.90;;;;;;6127133;23;20477;-76
2022/09/09 12:30:11;;;;;;;2.23;1.33;;;23.80;99.90;;;;;;6124779;23;20449;-76
2022/09/09 12:32:41;;;;;;;2.57;1.47;;;23.70;99.90;;;;;;6100666;23;20442;-76
2022/09/09 12:35:13;;;;;;;3.57;1.40;;;23.70;99.90;;;;;;6104784;23;20461;-76
2022/09/09 12:37:50;;;;;;;2.00;1.43;;;23.80;99.90;;;;;;6124154;23;20446;-76
2022/09/09 12:40:22;;;;;;;1.63;1.37;;;23.70;99.90;;;;;;6124197;23;20450;-75
2022/09/09 12:42:58;;;;;;;6.47;4.20;;;23.70;99.90;;;;;;6098804;23;20443;-77
2022/09/09 12:45:30;;;;;;;4.03;3.73;;;23.70;99.90;;;;;;6080771;23;20447;-76
2022/09/09 12:48:04;;;;;;;6.90;2.37;;;23.60;99.90;;;;;;6119045;23;20445;-77
2022/09/09 12:53:26;;;;;;;3.93;1.43;;;23.60;99.90;;;;;;6121932;23;20513;-77
2022/09/09 12:56:02;;;;;;;2.60;1.13;;;23.50;99.90;;;;;;6103023;23;20477;-76
2022/09/09 12:58:32;;;;;;;2.03;1.13;;;23.60;99.90;;;;;;6124728;23;20430;-77
2022/09/09 13:01:16;;;;;;;1.40;1.20;;;23.60;99.90;;;;;;6123760;23;21053;-77
2022/09/09 13:03:50;;;;;;;2.70;1.60;;;23.60;99.90;;;;;;6125963;23;20513;-76
2022/09/09 13:06:24;;;;;;;1.70;1.60;;;23.60;99.90;;;;;;6112547;23;20704;-76
2022/09/09 13:08:52;;;;;;;1.73;1.50;;;23.60;99.90;;;;;;6122914;23;20442;-77
2022/09/09 13:12:13;;;;;;;;;;;;;;;;;;;;;
2022/09/09 13:14:50;;;;;;;2.30;1.83;;;23.60;99.90;;;;;;6107244;23;20862;-76
2022/09/09 13:17:44;;;;;;;2.33;1.80;;;23.60;99.90;;;;;;6110210;23;20446;-77
2022/09/09 13:20:18;;;;;;;2.27;1.70;;;23.60;99.90;;;;;;6118008;23;20430;-77
2022/09/09 13:22:47;;;;;;;1.90;1.70;;;23.60;99.90;;;;;;6133660;23;20435;-77
2022/09/09 13:25:24;;;;;;;1.93;1.73;;;23.60;99.90;;;;;;6129680;23;20439;-78
2022/09/09 13:27:59;;;;;;;1.87;1.10;;;23.50;99.90;;;;;;6087342;23;20478;-78
2022/09/09 13:30:29;;;;;;;1.30;1.20;;;23.50;99.90;;;;;;6115636;23;20422;-77
2022/09/09 13:33:07;;;;;;;1.93;1.73;;;23.50;99.90;;;;;;6125736;23;20430;-79
2022/09/09 13:35:37;;;;;;;18.40;16.03;;;23.50;99.90;;;;;;6125304;23;20870;-76
2022/09/09 13:38:10;;;;;;;10.63;8.60;;;23.50;99.90;;;;;;6069666;23;20923;-77
2022/09/09 13:41:04;;;;;;;13.17;11.23;;;23.50;99.90;;;;;;6108174;23;20946;-77
2022/09/09 13:43:34;;;;;;;13.90;10.30;;;23.40;99.90;;;;;;6124780;23;20435;-76
2022/09/09 13:46:03;;;;;;;8.00;5.90;;;23.40;99.90;;;;;;6125346;23;20840;-77
2022/09/09 13:48:34;;;;;;;8.90;5.90;;;23.40;99.90;;;;;;6124135;23;20477;-77
2022/09/09 13:51:05;;;;;;;3.60;2.13;;;23.40;99.90;;;;;;6125292;23;20521;-76
2022/09/09 13:53:33;;;;;;;2.63;2.37;;;23.40;99.90;;;;;;6124507;23;20441;-77
2022/09/09 13:56:04;;;;;;;4.00;3.23;;;23.40;99.90;;;;;;6123814;23;20497;-77
2022/09/09 13:58:31;;;;;;;2.60;2.40;;;23.40;99.90;;;;;;6124173;23;20438;-76